Time;durP1;ratioP1;P1;durP2;ratioP2;P2;SDS_P1;SDS_P2;PMS_P1;PMS_P2;Temp;Humidity;BMP_temperature;BMP_pressure;BME280_temperature;BME280_humidity;BME280_pressure;Samples;Min_cycle;Max_cycle;Signal;HPM_P1;HPM_P2
2024/01/22 00:01:56;;;;;;;3.55;1.90;;;;;;;;;;5015993;28;42739;-69
2024/01/22 00:04:24;;;;;;;5.10;1.90;;;;;;;;;;5016071;28;41484;-69
2024/01/22 00:06:52;;;;;;;1.95;1.60;;;;;;;;;;5018150;28;42686;-69
2024/01/22 00:09:21;;;;;;;2.80;1.80;;;;;;;;;;5018700;28;41995;-69
2024/01/22 00:11:48;;;;;;;4.63;1.75;;;;;;;;;;5015641;28;41397;-69
2024/01/22 00:14:17;;;;;;;3.28;2.05;;;;;;;;;;5017022;28;43027;-69
2024/01/22 00:16:47;;;;;;;2.83;1.70;;;;;;;;;;5016403;28;42467;-69
2024/01/22 00:19:15;;;;;;;2.67;1.55;;;;;;;;;;5025815;28;41552;-69
2024/01/22 00:21:43;;;;;;;3.53;1.90;;;;;;;;;;5020903;28;42298;-69
2024/01/22 00:24:11;;;;;;;2.55;1.70;;;;;;;;;;5026686;28;40514;-69
2024/01/22 00:26:41;;;;;;;2.67;1.63;;;;;;;;;;5017909;28;43230;-69
2024/01/22 00:29:09;;;;;;;2.30;1.67;;;;;;;;;;5025271;28;41167;-69
2024/01/22 00:31:37;;;;;;;2.40;1.77;;;;;;;;;;5026118;28;41901;-69
2024/01/22 00:34:05;;;;;;;3.90;1.80;;;;;;;;;;5025568;28;41602;-68
2024/01/22 00:36:33;;;;;;;2.03;1.45;;;;;;;;;;5027375;28;41881;-68
2024/01/22 00:39:00;;;;;;;3.42;1.67;;;;;;;;;;5024850;28;40165;-69
2024/01/22 00:41:29;;;;;;;2.95;1.70;;;;;;;;;;5026631;28;43112;-68
2024/01/22 00:43:58;;;;;;;2.45;1.60;;;;;;;;;;5024654;28;41374;-69
2024/01/22 00:46:26;;;;;;;1.92;1.40;;;;;;;;;;5027155;28;41817;-68
2024/01/22 00:48:54;;;;;;;2.10;1.30;;;;;;;;;;5024264;28;42351;-68
2024/01/22 00:51:22;;;;;;;2.55;1.58;;;;;;;;;;5025340;28;42239;-68
2024/01/22 00:53:50;;;;;;;2.08;1.30;;;;;;;;;;5026261;28;42159;-68
2024/01/22 00:56:18;;;;;;;2.53;1.38;;;;;;;;;;5025419;28;40846;-68
2024/01/22 00:58:46;;;;;;;2.28;1.40;;;;;;;;;;5022416;28;41576;-68
2024/01/22 01:01:16;;;;;;;1.33;1.20;;;;;;;;;;5021755;28;41989;-68
2024/01/22 01:03:44;;;;;;;2.08;1.63;;;;;;;;;;5024819;28;40864;-69
2024/01/22 01:06:12;;;;;;;1.92;1.70;;;;;;;;;;5022925;28;41616;-69
2024/01/22 01:08:40;;;;;;;3.08;1.50;;;;;;;;;;5024595;28;34163;-68
2024/01/22 01:11:08;;;;;;;1.98;1.48;;;;;;;;;;5024458;28;42513;-68
2024/01/22 01:13:36;;;;;;;2.17;1.30;;;;;;;;;;5024291;28;43063;-68
2024/01/22 01:16:04;;;;;;;2.33;1.50;;;;;;;;;;5020114;28;42490;-68
2024/01/22 01:18:34;;;;;;;1.35;1.15;;;;;;;;;;5021738;28;41964;-68
2024/01/22 01:21:02;;;;;;;2.67;1.33;;;;;;;;;;5025241;28;42045;-68
2024/01/22 01:23:29;;;;;;;2.40;1.30;;;;;;;;;;5025383;28;41802;-68
2024/01/22 01:25:57;;;;;;;1.67;1.15;;;;;;;;;;5026440;28;41308;-68
2024/01/22 01:28:25;;;;;;;2.88;1.50;;;;;;;;;;5024215;28;41924;-68
2024/01/22 01:30:53;;;;;;;1.73;1.48;;;;;;;;;;5024375;28;41743;-68
2024/01/22 01:33:21;;;;;;;2.25;1.60;;;;;;;;;;5024915;28;41625;-68
2024/01/22 01:35:51;;;;;;;1.95;1.40;;;;;;;;;;5021591;28;41224;-69
2024/01/22 01:38:19;;;;;;;1.75;1.33;;;;;;;;;;5015098;28;41867;-69
2024/01/22 01:40:47;;;;;;;1.80;1.20;;;;;;;;;;5012786;28;42173;-68
2024/01/22 01:43:15;;;;;;;3.10;1.52;;;;;;;;;;5017248;28;41209;-69
2024/01/22 01:45:43;;;;;;;1.83;1.25;;;;;;;;;;5022875;28;41030;-68
2024/01/22 01:48:10;;;;;;;2.55;1.50;;;;;;;;;;5023581;28;42193;-68
2024/01/22 01:50:38;;;;;;;3.17;1.45;;;;;;;;;;5025169;28;41339;-68
2024/01/22 01:53:08;;;;;;;2.38;1.40;;;;;;;;;;5023966;28;42295;-68
2024/01/22 01:55:36;;;;;;;2.20;1.60;;;;;;;;;;5024622;28;41109;-68
2024/01/22 01:58:04;;;;;;;1.90;1.20;;;;;;;;;;5024787;28;42719;-68
2024/01/22 02:00:33;;;;;;;2.50;1.73;;;;;;;;;;5008760;28;42684;-68
2024/01/22 02:03:02;;;;;;;2.17;1.30;;;;;;;;;;5024345;28;40751;-68
2024/01/22 02:05:30;;;;;;;1.52;1.27;;;;;;;;;;5023959;28;42021;-68
2024/01/22 02:07:58;;;;;;;2.28;1.20;;;;;;;;;;5011758;28;40689;-68
2024/01/22 02:10:29;;;;;;;2.05;1.20;;;;;;;;;;5012728;28;41213;-68
2024/01/22 02:12:57;;;;;;;2.33;1.50;;;;;;;;;;5023926;28;41598;-68
2024/01/22 02:15:25;;;;;;;1.98;0.98;;;;;;;;;;5025055;28;41325;-68
2024/01/22 02:17:53;;;;;;;1.70;1.08;;;;;;;;;;5022107;28;41584;-68
2024/01/22 02:20:22;;;;;;;5.00;1.40;;;;;;;;;;5024018;28;41998;-68
2024/01/22 02:22:50;;;;;;;1.85;1.30;;;;;;;;;;5024572;28;41310;-68
2024/01/22 02:25:19;;;;;;;1.20;1.08;;;;;;;;;;5015862;28;41514;-67
2024/01/22 02:27:47;;;;;;;2.25;1.42;;;;;;;;;;5021981;28;42846;-68
2024/01/22 02:30:15;;;;;;;2.10;1.40;;;;;;;;;;5024492;28;41224;-68
2024/01/22 02:32:43;;;;;;;1.60;0.98;;;;;;;;;;5021474;28;41623;-68
2024/01/22 02:35:11;;;;;;;1.58;1.20;;;;;;;;;;5023436;28;43214;-68
2024/01/22 02:37:39;;;;;;;2.72;1.35;;;;;;;;;;5024932;28;39953;-68
2024/01/22 02:40:08;;;;;;;1.30;1.00;;;;;;;;;;5025083;28;42770;-68
2024/01/22 02:42:37;;;;;;;1.55;0.95;;;;;;;;;;5022056;28;41351;-67
2024/01/22 02:45:07;;;;;;;2.03;1.30;;;;;;;;;;5018077;28;42455;-67
2024/01/22 02:47:35;;;;;;;1.75;1.33;;;;;;;;;;5013232;28;42433;-68
2024/01/22 02:50:04;;;;;;;1.95;1.05;;;;;;;;;;5011006;28;41566;-68
2024/01/22 02:52:32;;;;;;;2.92;1.70;;;;;;;;;;5024593;28;42654;-67
2024/01/22 02:55:00;;;;;;;2.67;1.13;;;;;;;;;;5023819;28;43156;-68
2024/01/22 02:57:28;;;;;;;2.20;1.25;;;;;;;;;;5023689;28;42337;-67
2024/01/22 02:59:57;;;;;;;1.75;0.88;;;;;;;;;;5024594;28;41578;-68
2024/01/22 03:02:25;;;;;;;2.05;1.13;;;;;;;;;;5008932;28;41205;-68
2024/01/22 03:04:53;;;;;;;1.23;1.10;;;;;;;;;;5024084;28;41867;-67
2024/01/22 03:07:21;;;;;;;1.42;1.00;;;;;;;;;;5019566;28;42050;-68
2024/01/22 03:09:49;;;;;;;2.70;1.38;;;;;;;;;;5013610;28;41294;-67
2024/01/22 03:12:17;;;;;;;1.63;1.00;;;;;;;;;;5013605;28;41532;-67
2024/01/22 03:14:45;;;;;;;1.60;1.27;;;;;;;;;;5023125;28;43107;-68
2024/01/22 03:17:14;;;;;;;1.40;0.90;;;;;;;;;;5023009;28;40118;-67
2024/01/22 03:19:42;;;;;;;2.50;1.10;;;;;;;;;;5019838;28;41575;-67
2024/01/22 03:22:10;;;;;;;2.03;1.33;;;;;;;;;;5024051;28;41097;-67
2024/01/22 03:24:38;;;;;;;1.10;1.00;;;;;;;;;;5023730;28;41059;-67
2024/01/22 03:27:06;;;;;;;1.75;1.40;;;;;;;;;;5022108;28;43203;-68
2024/01/22 03:29:34;;;;;;;2.75;1.10;;;;;;;;;;5021522;28;42061;-68
2024/01/22 03:32:02;;;;;;;2.05;1.20;;;;;;;;;;5023636;28;41697;-68
2024/01/22 03:34:31;;;;;;;1.30;1.20;;;;;;;;;;5024704;28;40889;-67
2024/01/22 03:36:59;;;;;;;1.55;0.90;;;;;;;;;;5023578;28;40979;-68
2024/01/22 03:39:27;;;;;;;1.90;1.15;;;;;;;;;;5024690;28;43334;-69
2024/01/22 03:41:55;;;;;;;1.05;0.95;;;;;;;;;;5018864;28;42147;-68
2024/01/22 03:44:23;;;;;;;2.03;1.35;;;;;;;;;;5013429;28;41405;-69
2024/01/22 03:46:51;;;;;;;1.88;1.35;;;;;;;;;;5024163;28;42378;-68
2024/01/22 03:49:19;;;;;;;1.20;0.95;;;;;;;;;;5023021;28;41275;-69
2024/01/22 03:51:48;;;;;;;2.15;1.02;;;;;;;;;;5018929;28;42130;-69
2024/01/22 03:54:16;;;;;;;1.13;1.02;;;;;;;;;;5019084;28;41440;-69
2024/01/22 03:56:44;;;;;;;2.08;1.10;;;;;;;;;;5022150;28;41189;-68
2024/01/22 03:59:13;;;;;;;1.60;1.20;;;;;;;;;;5022536;28;41865;-69
2024/01/22 04:01:41;;;;;;;1.63;0.93;;;;;;;;;;5019812;28;42776;-69
2024/01/22 04:04:09;;;;;;;0.80;0.60;;;;;;;;;;5007648;28;41514;-68
2024/01/22 04:06:37;;;;;;;1.27;0.93;;;;;;;;;;5009171;28;41900;-68
2024/01/22 04:09:06;;;;;;;1.20;0.98;;;;;;;;;;5019285;28;41409;-69
2024/01/22 04:11:34;;;;;;;1.30;0.98;;;;;;;;;;5007429;28;41607;-69
2024/01/22 04:14:02;;;;;;;1.95;1.08;;;;;;;;;;5024280;28;42074;-68
2024/01/22 04:16:30;;;;;;;1.85;1.15;;;;;;;;;;5027493;28;42200;-69
2024/01/22 04:18:58;;;;;;;1.63;1.10;;;;;;;;;;5026212;28;41401;-68
2024/01/22 04:21:27;;;;;;;1.00;0.90;;;;;;;;;;5026479;28;41535;-68
2024/01/22 04:23:55;;;;;;;1.50;0.95;;;;;;;;;;5014602;28;41776;-68
2024/01/22 04:26:25;;;;;;;1.00;0.88;;;;;;;;;;5023751;28;41193;-68
2024/01/22 04:28:52;;;;;;;1.02;0.80;;;;;;;;;;5021562;28;40538;-68
2024/01/22 04:31:20;;;;;;;1.10;0.90;;;;;;;;;;5025141;28;41633;-68
2024/01/22 04:33:48;;;;;;;1.83;0.98;;;;;;;;;;5025202;28;42549;-68
2024/01/22 04:36:16;;;;;;;1.35;0.90;;;;;;;;;;5024546;28;41859;-68
2024/01/22 04:38:45;;;;;;;2.78;1.17;;;;;;;;;;5022607;28;41911;-68
2024/01/22 04:41:13;;;;;;;1.27;0.98;;;;;;;;;;5024786;28;41459;-68
2024/01/22 04:43:42;;;;;;;1.52;0.98;;;;;;;;;;5022572;28;41992;-68
2024/01/22 04:46:10;;;;;;;1.40;0.85;;;;;;;;;;5025267;28;41136;-68
2024/01/22 04:48:38;;;;;;;1.52;1.00;;;;;;;;;;5023270;28;40786;-68
2024/01/22 04:51:07;;;;;;;1.60;0.88;;;;;;;;;;5025495;28;41518;-68
2024/01/22 04:53:36;;;;;;;0.90;0.80;;;;;;;;;;5025660;28;42309;-68
2024/01/22 04:56:04;;;;;;;1.33;0.75;;;;;;;;;;5024808;28;42351;-68
2024/01/22 04:58:32;;;;;;;1.63;0.98;;;;;;;;;;5024496;28;42679;-68
2024/01/22 05:01:01;;;;;;;0.93;0.85;;;;;;;;;;5016929;28;41413;-68
2024/01/22 05:03:29;;;;;;;1.52;0.98;;;;;;;;;;5013547;28;40717;-68
2024/01/22 05:05:57;;;;;;;1.38;0.80;;;;;;;;;;5019354;28;40058;-68
2024/01/22 05:08:25;;;;;;;1.30;0.90;;;;;;;;;;5017805;28;43067;-68
2024/01/22 05:10:53;;;;;;;0.70;0.70;;;;;;;;;;5025248;28;41619;-68
2024/01/22 05:13:22;;;;;;;2.03;0.85;;;;;;;;;;5024832;28;42065;-68
2024/01/22 05:15:50;;;;;;;1.00;0.80;;;;;;;;;;5021048;28;42696;-67
2024/01/22 05:18:19;;;;;;;0.80;0.68;;;;;;;;;;5019848;28;42243;-67
2024/01/22 05:20:51;;;;;;;2.33;0.80;;;;;;;;;;5018462;28;41737;-67
2024/01/22 05:23:19;;;;;;;0.88;0.85;;;;;;;;;;5025361;28;41908;-67
2024/01/22 05:25:47;;;;;;;1.10;0.90;;;;;;;;;;5025471;28;42647;-67
2024/01/22 05:28:14;;;;;;;0.85;0.80;;;;;;;;;;5027381;28;42772;-67
2024/01/22 05:30:42;;;;;;;0.95;0.63;;;;;;;;;;5024640;28;42694;-67
2024/01/22 05:33:10;;;;;;;0.70;0.70;;;;;;;;;;5026216;28;42098;-67
2024/01/22 05:35:40;;;;;;;0.93;0.70;;;;;;;;;;5023185;28;41338;-68
2024/01/22 05:38:08;;;;;;;1.08;0.63;;;;;;;;;;5021649;28;41625;-68
2024/01/22 05:40:36;;;;;;;1.00;0.80;;;;;;;;;;5026634;28;42022;-67
2024/01/22 05:43:05;;;;;;;1.15;0.80;;;;;;;;;;5025275;28;40580;-68
2024/01/22 05:45:33;;;;;;;0.90;0.60;;;;;;;;;;5011977;28;42820;-67
2024/01/22 05:48:01;;;;;;;0.82;0.60;;;;;;;;;;5025016;28;42155;-68
2024/01/22 05:50:29;;;;;;;1.35;0.95;;;;;;;;;;5026128;28;41295;-68
2024/01/22 05:52:59;;;;;;;1.65;0.88;;;;;;;;;;5024242;28;41826;-68
2024/01/22 05:55:28;;;;;;;1.65;0.90;;;;;;;;;;5020716;28;42180;-67
2024/01/22 05:57:56;;;;;;;0.70;0.70;;;;;;;;;;5011935;28;41229;-67
2024/01/22 06:00:24;;;;;;;1.10;0.63;;;;;;;;;;5011980;28;43058;-68
2024/01/22 06:02:52;;;;;;;1.00;0.82;;;;;;;;;;5014651;28;41575;-67
2024/01/22 06:05:20;;;;;;;1.20;0.70;;;;;;;;;;5020340;28;41180;-68
2024/01/22 06:07:48;;;;;;;1.58;0.95;;;;;;;;;;5024329;28;43193;-67
2024/01/22 06:10:17;;;;;;;0.80;0.60;;;;;;;;;;5021055;28;41865;-67
2024/01/22 06:12:45;;;;;;;1.25;0.50;;;;;;;;;;5013998;28;41650;-68
2024/01/22 06:15:13;;;;;;;1.13;0.90;;;;;;;;;;5023863;28;40862;-67
2024/01/22 06:17:41;;;;;;;1.10;0.90;;;;;;;;;;5025733;28;42740;-68
2024/01/22 06:20:10;;;;;;;1.00;0.60;;;;;;;;;;5023460;28;42786;-68
2024/01/22 06:22:38;;;;;;;0.80;0.60;;;;;;;;;;5025168;28;41751;-67
2024/01/22 06:25:07;;;;;;;1.00;0.52;;;;;;;;;;5024670;28;41585;-67
2024/01/22 06:27:36;;;;;;;1.88;0.77;;;;;;;;;;5023925;28;41590;-67
2024/01/22 06:30:05;;;;;;;1.13;0.65;;;;;;;;;;5023810;28;40726;-66
2024/01/22 06:32:33;;;;;;;1.10;0.52;;;;;;;;;;5024713;28;41161;-66
2024/01/22 06:35:01;;;;;;;0.68;0.60;;;;;;;;;;5021172;28;41817;-67
2024/01/22 06:37:29;;;;;;;1.00;0.60;;;;;;;;;;5024474;28;41400;-67
2024/01/22 06:40:00;;;;;;;1.08;0.60;;;;;;;;;;5015417;28;41553;-68
2024/01/22 06:42:29;;;;;;;0.80;0.65;;;;;;;;;;5023304;28;41257;-68
2024/01/22 06:45:07;;;;;;;1.05;0.82;;;;;;;;;;5023254;28;41394;-68
2024/01/22 06:47:36;;;;;;;0.90;0.60;;;;;;;;;;5024464;28;43208;-68
2024/01/22 06:50:05;;;;;;;0.93;0.60;;;;;;;;;;5025485;28;42349;-68
2024/01/22 06:52:33;;;;;;;1.25;0.63;;;;;;;;;;5024708;28;41421;-68
2024/01/22 06:55:02;;;;;;;0.80;0.60;;;;;;;;;;5023191;28;43063;-68
2024/01/22 06:57:30;;;;;;;1.10;0.65;;;;;;;;;;5012266;28;42349;-68
2024/01/22 06:59:59;;;;;;;0.85;0.60;;;;;;;;;;5011815;28;43309;-68
2024/01/22 07:02:29;;;;;;;0.70;0.60;;;;;;;;;;5016514;28;41142;-68
2024/01/22 07:04:56;;;;;;;0.60;0.50;;;;;;;;;;5019065;28;42592;-68
2024/01/22 07:07:25;;;;;;;0.77;0.52;;;;;;;;;;5018374;28;42129;-68
2024/01/22 07:09:53;;;;;;;0.70;0.43;;;;;;;;;;5017289;28;42220;-68
2024/01/22 07:12:21;;;;;;;0.88;0.50;;;;;;;;;;5011905;28;41292;-69
2024/01/22 07:14:49;;;;;;;1.27;0.70;;;;;;;;;;5024002;28;42002;-69
2024/01/22 07:17:19;;;;;;;1.13;0.70;;;;;;;;;;5019579;28;42332;-69
2024/01/22 07:19:54;;;;;;;0.75;0.47;;;;;;;;;;5016677;28;42250;-69
2024/01/22 07:22:22;;;;;;;0.80;0.50;;;;;;;;;;5024202;28;41553;-68
2024/01/22 07:24:50;;;;;;;0.80;0.57;;;;;;;;;;5022092;28;43325;-69
2024/01/22 07:27:18;;;;;;;0.70;0.50;;;;;;;;;;5024099;28;42758;-69
2024/01/22 07:29:46;;;;;;;1.83;0.73;;;;;;;;;;5018045;28;40935;-69
2024/01/22 07:32:14;;;;;;;0.60;0.50;;;;;;;;;;5009833;28;41703;-69
2024/01/22 07:34:42;;;;;;;0.88;0.63;;;;;;;;;;5017864;28;40683;-68
2024/01/22 07:37:12;;;;;;;0.75;0.60;;;;;;;;;;5013689;28;41542;-69
2024/01/22 07:39:40;;;;;;;1.52;0.60;;;;;;;;;;5022499;28;42661;-69
2024/01/22 07:42:08;;;;;;;1.08;0.70;;;;;;;;;;5006159;28;41256;-68
2024/01/22 07:44:36;;;;;;;0.60;0.40;;;;;;;;;;5005199;28;41526;-68
2024/01/22 07:47:04;;;;;;;0.55;0.47;;;;;;;;;;5024414;28;42039;-69
2024/01/22 07:49:32;;;;;;;0.88;0.50;;;;;;;;;;5027129;28;41296;-68
2024/01/22 07:52:01;;;;;;;0.88;0.60;;;;;;;;;;5022580;28;41893;-69
2024/01/22 07:54:31;;;;;;;1.05;0.57;;;;;;;;;;5012187;28;41711;-68
2024/01/22 07:56:59;;;;;;;0.80;0.60;;;;;;;;;;5018675;28;40555;-69
2024/01/22 07:59:27;;;;;;;1.17;0.60;;;;;;;;;;5012162;28;41373;-68
2024/01/22 08:01:55;;;;;;;1.17;0.60;;;;;;;;;;5015226;28;42003;-69
2024/01/22 08:04:23;;;;;;;1.90;0.47;;;;;;;;;;5016388;28;41071;-73
2024/01/22 08:06:51;;;;;;;3.15;0.75;;;;;;;;;;5022891;28;43040;-68
2024/01/22 08:09:19;;;;;;;3.25;0.93;;;;;;;;;;5019819;28;41094;-71
2024/01/22 08:11:48;;;;;;;3.15;0.73;;;;;;;;;;5018512;28;41325;-72
2024/01/22 08:14:17;;;;;;;2.17;0.70;;;;;;;;;;5016915;28;42083;-71
2024/01/22 08:16:46;;;;;;;2.58;0.68;;;;;;;;;;5015034;28;42210;-72
2024/01/22 08:19:14;;;;;;;6.47;0.98;;;;;;;;;;5020207;28;41786;-72
2024/01/22 08:21:42;;;;;;;1.38;0.85;;;;;;;;;;5020746;28;41912;-72
2024/01/22 08:24:10;;;;;;;2.05;0.57;;;;;;;;;;5021418;28;40994;-76
2024/01/22 08:26:38;;;;;;;3.00;0.70;;;;;;;;;;5025747;28;42602;-69
2024/01/22 08:29:07;;;;;;;4.72;0.80;;;;;;;;;;5026665;28;41976;-68
2024/01/22 08:31:35;;;;;;;3.00;0.85;;;;;;;;;;5025206;28;42539;-77
2024/01/22 08:34:05;;;;;;;2.85;0.85;;;;;;;;;;5025189;28;42203;-77
2024/01/22 08:36:33;;;;;;;5.05;1.27;;;;;;;;;;5025459;28;41210;-77
2024/01/22 08:39:02;;;;;;;4.35;0.80;;;;;;;;;;5026186;28;41287;-77
2024/01/22 08:41:30;;;;;;;4.88;1.00;;;;;;;;;;5024308;28;42596;-76
2024/01/22 08:43:59;;;;;;;8.10;1.02;;;;;;;;;;5014577;28;40898;-73
2024/01/22 08:46:30;;;;;;;2.38;0.85;;;;;;;;;;5022429;28;41666;-76
2024/01/22 08:48:58;;;;;;;7.97;0.90;;;;;;;;;;5023388;28;41393;-68
2024/01/22 08:51:28;;;;;;;5.68;1.55;;;;;;;;;;5014434;28;41751;-69
2024/01/22 08:53:55;;;;;;;3.22;1.23;;;;;;;;;;5016411;28;43167;-70
2024/01/22 08:56:23;;;;;;;5.70;1.10;;;;;;;;;;5022828;28;42310;-69
2024/01/22 08:58:52;;;;;;;6.47;1.00;;;;;;;;;;5020915;28;42740;-70
2024/01/22 09:01:20;;;;;;;3.95;1.00;;;;;;;;;;5026412;28;41973;-71
2024/01/22 09:03:49;;;;;;;5.13;0.77;;;;;;;;;;5023419;28;41362;-68
2024/01/22 09:06:18;;;;;;;3.97;1.10;;;;;;;;;;5024345;28;42012;-70
2024/01/22 09:08:46;;;;;;;4.35;1.20;;;;;;;;;;5011707;28;43119;-68
2024/01/22 09:11:14;;;;;;;5.68;1.48;;;;;;;;;;5017898;28;42678;-70
2024/01/22 09:13:42;;;;;;;5.03;1.70;;;;;;;;;;5018908;28;41640;-69
2024/01/22 09:16:14;;;;;;;2.42;1.00;;;;;;;;;;5020354;28;41550;-69
2024/01/22 09:18:43;;;;;;;3.33;1.10;;;;;;;;;;5016474;28;42100;-71
2024/01/22 09:21:13;;;;;;;4.30;1.20;;;;;;;;;;5013660;28;41668;-72
2024/01/22 09:23:41;;;;;;;4.88;1.40;;;;;;;;;;5011744;28;40925;-75
2024/01/22 09:26:09;;;;;;;4.75;1.00;;;;;;;;;;5025871;28;41123;-70
2024/01/22 09:28:37;;;;;;;8.15;1.55;;;;;;;;;;5025903;28;42073;-70
2024/01/22 09:31:05;;;;;;;6.18;1.42;;;;;;;;;;5026581;28;41935;-69
2024/01/22 09:33:33;;;;;;;9.00;1.42;;;;;;;;;;5026032;28;42065;-69
2024/01/22 09:36:03;;;;;;;5.00;1.00;;;;;;;;;;5025186;28;40949;-69
2024/01/22 09:38:33;;;;;;;2.78;1.40;;;;;;;;;;5026343;28;42313;-69
2024/01/22 09:41:01;;;;;;;4.72;1.40;;;;;;;;;;5025627;28;42024;-69
2024/01/22 09:43:29;;;;;;;6.78;1.85;;;;;;;;;;5019878;28;41754;-69
2024/01/22 09:45:57;;;;;;;3.45;1.45;;;;;;;;;;5023318;28;42552;-70
2024/01/22 09:48:25;;;;;;;5.80;1.73;;;;;;;;;;5016056;28;43162;-73
2024/01/22 09:50:54;;;;;;;7.97;1.67;;;;;;;;;;5014730;28;42357;-76
2024/01/22 09:53:22;;;;;;;4.88;1.38;;;;;;;;;;5017867;28;42180;-77
2024/01/22 09:55:51;;;;;;;7.70;1.52;;;;;;;;;;5016552;28;42415;-74
2024/01/22 09:58:21;;;;;;;4.90;1.33;;;;;;;;;;5013216;28;41693;-76
2024/01/22 10:00:49;;;;;;;2.80;1.02;;;;;;;;;;5016686;28;43230;-76
2024/01/22 10:03:17;;;;;;;6.20;1.25;;;;;;;;;;5020826;28;41813;-76
2024/01/22 10:05:45;;;;;;;3.20;0.90;;;;;;;;;;5015439;28;41922;-75
2024/01/22 10:08:13;;;;;;;3.78;1.00;;;;;;;;;;5023983;28;42078;-74
2024/01/22 10:10:41;;;;;;;5.45;1.20;;;;;;;;;;5024022;28;41896;-76
2024/01/22 10:13:12;;;;;;;5.35;1.25;;;;;;;;;;5012935;28;41480;-75
2024/01/22 10:15:40;;;;;;;5.15;1.35;;;;;;;;;;5014598;28;41289;-75
2024/01/22 10:18:07;;;;;;;5.80;1.45;;;;;;;;;;5008871;28;41692;-76
2024/01/22 10:20:36;;;;;;;5.43;1.30;;;;;;;;;;5020974;28;41755;-76
2024/01/22 10:23:04;;;;;;;6.38;1.50;;;;;;;;;;5024042;28;41811;-74
2024/01/22 10:25:32;;;;;;;6.50;1.85;;;;;;;;;;5022965;28;42695;-76
2024/01/22 10:28:11;;;;;;;5.78;1.88;;;;;;;;;;5024126;28;42718;-77
2024/01/22 10:30:39;;;;;;;5.50;1.38;;;;;;;;;;5021353;28;41258;-76
2024/01/22 10:33:14;;;;;;;5.50;1.48;;;;;;;;;;5024805;28;41236;-76
2024/01/22 10:35:42;;;;;;;9.95;2.22;;;;;;;;;;5025055;28;43126;-76
2024/01/22 10:38:10;;;;;;;9.43;2.58;;;;;;;;;;5016405;28;41934;-74
2024/01/22 10:40:39;;;;;;;5.32;1.27;;;;;;;;;;5015927;28;42033;-76
2024/01/22 10:43:26;;;;;;;5.43;1.33;;;;;;;;;;5018361;28;41244;-75
2024/01/22 10:45:55;;;;;;;7.45;1.50;;;;;;;;;;5017232;28;42299;-76
2024/01/22 10:48:24;;;;;;;5.70;1.50;;;;;;;;;;5025782;28;42051;-75
2024/01/22 10:51:07;;;;;;;5.80;1.33;;;;;;;;;;5027052;28;42166;-77
2024/01/22 10:53:36;;;;;;;9.38;1.50;;;;;;;;;;5025035;28;41181;-77
2024/01/22 10:56:05;;;;;;;6.63;1.27;;;;;;;;;;5025990;28;42249;-76
2024/01/22 10:58:38;;;;;;;8.90;1.52;;;;;;;;;;5026548;28;41522;-76
2024/01/22 11:01:09;;;;;;;4.82;1.50;;;;;;;;;;5025300;28;41822;-77
2024/01/22 11:03:38;;;;;;;4.35;1.48;;;;;;;;;;5026401;28;42376;-76
2024/01/22 11:06:07;;;;;;;4.38;1.70;;;;;;;;;;5011993;28;41482;-77
2024/01/22 11:08:35;;;;;;;5.97;1.40;;;;;;;;;;5025797;28;42570;-75
2024/01/22 11:11:03;;;;;;;6.57;1.40;;;;;;;;;;5024713;28;40831;-78
2024/01/22 11:13:31;;;;;;;7.95;2.15;;;;;;;;;;5023591;28;41668;-78
2024/01/22 11:16:00;;;;;;;8.43;1.60;;;;;;;;;;5021987;28;42921;-78
2024/01/22 11:18:28;;;;;;;3.80;1.13;;;;;;;;;;5018717;28;40739;-78
2024/01/22 11:21:18;;;;;;;8.55;1.33;;;;;;;;;;5028230;28;42436;-75
2024/01/22 11:24:00;;;;;;;9.48;1.77;;;;;;;;;;5025536;28;41055;-75
2024/01/22 11:26:28;;;;;;;4.90;1.17;;;;;;;;;;5029099;28;40482;-76
2024/01/22 11:29:06;;;;;;;11.15;2.42;;;;;;;;;;5024452;28;43666;-77
2024/01/22 11:31:35;;;;;;;5.80;1.50;;;;;;;;;;5023591;28;41898;-77
2024/01/22 11:34:04;;;;;;;8.45;1.45;;;;;;;;;;5022764;28;41528;-80
2024/01/22 11:36:52;;;;;;;8.52;2.25;;;;;;;;;;5015996;28;42226;-78
2024/01/22 11:39:42;;;;;;;12.05;3.08;;;;;;;;;;5027836;28;41375;-76
2024/01/22 11:42:25;;;;;;;6.97;2.25;;;;;;;;;;5012126;28;41923;-76
2024/01/22 11:44:54;;;;;;;4.70;1.13;;;;;;;;;;5023130;28;33416;-77
2024/01/22 11:47:24;;;;;;;9.82;1.98;;;;;;;;;;5027743;28;42133;-79
2024/01/22 11:49:53;;;;;;;9.25;2.90;;;;;;;;;;5022550;28;42384;-75
2024/01/22 11:52:22;;;;;;;11.88;1.88;;;;;;;;;;5024054;28;42032;-74
2024/01/22 11:54:55;;;;;;;6.07;1.75;;;;;;;;;;5024949;28;42874;-74
2024/01/22 11:57:23;;;;;;;9.13;2.28;;;;;;;;;;5018956;28;41739;-75
2024/01/22 11:59:58;;;;;;;8.27;2.45;;;;;;;;;;5027473;28;41064;-74
2024/01/22 12:02:27;;;;;;;11.25;4.20;;;;;;;;;;5026910;28;41611;-70
2024/01/22 12:05:06;;;;;;;9.80;2.58;;;;;;;;;;5024240;28;43344;-75
2024/01/22 12:07:34;;;;;;;13.25;3.15;;;;;;;;;;5026877;28;41428;-73
2024/01/22 12:10:02;;;;;;;12.52;3.25;;;;;;;;;;5025755;28;41783;-77
2024/01/22 12:12:30;;;;;;;11.30;3.20;;;;;;;;;;5024957;28;42250;-76
2024/01/22 12:14:58;;;;;;;6.18;1.95;;;;;;;;;;5024428;28;42906;-76
2024/01/22 12:17:28;;;;;;;7.57;2.15;;;;;;;;;;5026648;28;41953;-77
2024/01/22 12:19:56;;;;;;;12.82;3.25;;;;;;;;;;5027730;28;42483;-78
2024/01/22 12:22:28;;;;;;;8.57;2.55;;;;;;;;;;5028366;28;41996;-76
2024/01/22 12:25:05;;;;;;;8.75;2.40;;;;;;;;;;5026910;28;41407;-69
2024/01/22 12:27:33;;;;;;;8.40;2.65;;;;;;;;;;5026769;28;41898;-73
2024/01/22 12:30:01;;;;;;;14.10;3.35;;;;;;;;;;5028124;28;41947;-75
2024/01/22 12:32:31;;;;;;;12.98;3.33;;;;;;;;;;5026187;28;41400;-76
2024/01/22 12:34:59;;;;;;;9.55;2.55;;;;;;;;;;5027368;28;41594;-77
2024/01/22 12:37:31;;;;;;;10.32;2.58;;;;;;;;;;5021180;28;42699;-78
2024/01/22 12:40:09;;;;;;;16.83;3.38;;;;;;;;;;5015300;28;41072;-74
2024/01/22 12:42:37;;;;;;;8.32;2.38;;;;;;;;;;5015677;28;42577;-79
2024/01/22 12:45:06;;;;;;;7.72;2.25;;;;;;;;;;5011727;28;42085;-67
2024/01/22 12:47:36;;;;;;;7.57;2.85;;;;;;;;;;5025019;28;40933;-67
2024/01/22 12:50:04;;;;;;;13.23;3.13;;;;;;;;;;5022578;28;41499;-66
2024/01/22 12:52:33;;;;;;;15.98;3.50;;;;;;;;;;5023582;28;41672;-67
2024/01/22 12:55:01;;;;;;;19.48;3.40;;;;;;;;;;5025619;28;42370;-67
2024/01/22 12:57:30;;;;;;;17.80;3.72;;;;;;;;;;5023393;28;42103;-67
2024/01/22 12:59:58;;;;;;;17.08;3.85;;;;;;;;;;5023736;28;41409;-67
2024/01/22 13:02:26;;;;;;;19.30;4.00;;;;;;;;;;5026658;28;41793;-70
2024/01/22 13:04:55;;;;;;;33.92;4.40;;;;;;;;;;5026479;28;42698;-69
2024/01/22 13:07:23;;;;;;;24.20;4.43;;;;;;;;;;5025248;28;41852;-67
2024/01/22 13:09:51;;;;;;;26.17;4.47;;;;;;;;;;5026763;28;41705;-68
2024/01/22 13:12:20;;;;;;;32.08;4.68;;;;;;;;;;5026228;28;43089;-66
2024/01/22 13:14:48;;;;;;;24.35;5.07;;;;;;;;;;5017602;28;42097;-68
2024/01/22 13:17:16;;;;;;;26.55;4.97;;;;;;;;;;5020877;28;42070;-68
2024/01/22 13:19:44;;;;;;;14.82;3.70;;;;;;;;;;5019356;28;41188;-68
2024/01/22 13:22:15;;;;;;;21.42;4.65;;;;;;;;;;5019123;28;41816;-68
2024/01/22 13:24:43;;;;;;;17.05;4.20;;;;;;;;;;5011874;28;42174;-68
2024/01/22 13:27:11;;;;;;;14.43;3.30;;;;;;;;;;5015908;28;41365;-68
2024/01/22 13:29:39;;;;;;;19.27;4.07;;;;;;;;;;5025744;28;41801;-67
2024/01/22 13:32:07;;;;;;;21.70;4.65;;;;;;;;;;5021823;28;41975;-67
2024/01/22 13:34:36;;;;;;;18.35;4.05;;;;;;;;;;5013403;28;41247;-67
2024/01/22 13:37:05;;;;;;;27.13;5.05;;;;;;;;;;5019637;28;42150;-68
2024/01/22 13:39:33;;;;;;;15.07;3.55;;;;;;;;;;5025724;28;40963;-67
2024/01/22 13:42:03;;;;;;;13.77;3.58;;;;;;;;;;5023622;28;41738;-68
2024/01/22 13:44:31;;;;;;;17.30;4.15;;;;;;;;;;5025087;28;42206;-67
2024/01/22 13:46:59;;;;;;;13.20;3.33;;;;;;;;;;5024098;28;42070;-68
2024/01/22 13:49:27;;;;;;;16.27;3.55;;;;;;;;;;5025541;28;42411;-69
2024/01/22 13:51:58;;;;;;;16.58;3.83;;;;;;;;;;5026061;28;41595;-69
2024/01/22 13:54:26;;;;;;;15.75;3.78;;;;;;;;;;5025863;28;41319;-70
2024/01/22 13:56:55;;;;;;;15.13;3.58;;;;;;;;;;5024850;28;41568;-69
2024/01/22 13:59:23;;;;;;;13.88;3.25;;;;;;;;;;5024544;28;41321;-69
2024/01/22 14:01:51;;;;;;;13.68;2.90;;;;;;;;;;5025323;28;41703;-69
2024/01/22 14:04:19;;;;;;;14.38;3.67;;;;;;;;;;5024823;28;42684;-72
2024/01/22 14:06:49;;;;;;;18.98;3.25;;;;;;;;;;5025657;28;41021;-70
2024/01/22 14:09:17;;;;;;;15.05;3.47;;;;;;;;;;5024395;28;41086;-70
2024/01/22 14:11:46;;;;;;;10.57;3.38;;;;;;;;;;5023972;28;42651;-71
2024/01/22 14:14:16;;;;;;;15.27;3.47;;;;;;;;;;5013486;28;41330;-70
2024/01/22 14:16:52;;;;;;;15.05;3.28;;;;;;;;;;5024021;28;41590;-69
2024/01/22 14:19:21;;;;;;;16.63;3.63;;;;;;;;;;5019114;28;41019;-70
2024/01/22 14:21:50;;;;;;;9.63;3.20;;;;;;;;;;5023662;28;42374;-70
2024/01/22 14:24:19;;;;;;;21.02;4.47;;;;;;;;;;5018206;28;41438;-69
2024/01/22 14:26:49;;;;;;;14.82;3.40;;;;;;;;;;5016664;28;41308;-71
2024/01/22 14:29:18;;;;;;;11.35;2.83;;;;;;;;;;5019368;28;41585;-71
2024/01/22 14:31:46;;;;;;;22.35;3.13;;;;;;;;;;5015701;28;41776;-71
2024/01/22 14:34:14;;;;;;;15.02;3.70;;;;;;;;;;5023336;28;40897;-71
2024/01/22 14:36:42;;;;;;;11.15;3.33;;;;;;;;;;5024228;28;41935;-72
2024/01/22 14:39:10;;;;;;;15.05;3.75;;;;;;;;;;5024485;28;42195;-71
2024/01/22 14:41:39;;;;;;;10.40;3.22;;;;;;;;;;5025107;28;42782;-70
2024/01/22 14:44:07;;;;;;;14.35;3.95;;;;;;;;;;5016011;28;41534;-71
2024/01/22 14:46:36;;;;;;;15.13;3.60;;;;;;;;;;5019824;28;41980;-73
2024/01/22 14:49:04;;;;;;;12.82;3.40;;;;;;;;;;5023694;28;41277;-76
2024/01/22 14:51:43;;;;;;;14.10;3.35;;;;;;;;;;5015083;28;42766;-73